This is the latest recevied weather packets stored in our database for station/object JF2ZGN-13. If no packets are shown the sender has not sent any weather packets the latest 10 day(s).
| Time | Temp. | Humidity | Pressure | Rain* | Wind** | Luminosity | Snow |
|---|---|---|---|---|---|---|---|
| 1777651360 | 6.11° C | 80% | 887.4 hPa | 0 mm | - | - | - |
| 1777650159 | 6.11° C | 80% | 886.7 hPa | 0 mm | - | - | - |
| 1777648959 | 6.11° C | 80% | 886.4 hPa | 0 mm | - | - | - |
| 1777648358 | 6.11° C | 81% | 886.7 hPa | 0 mm | - | - | - |
| 1777647757 | 5.56° C | 83% | 885.9 hPa | 0 mm | - | - | - |
| 1777647157 | 6.11° C | 82% | 886.4 hPa | 120.4 mm | - | - | - |
| 1777645956 | 5.56° C | 83% | 887.3 hPa | 120.4 mm | - | - | - |
| 1777645356 | 5.56° C | 83% | 887.7 hPa | 120.4 mm | - | - | - |
| 1777644755 | 6.11° C | 81% | 887.5 hPa | 120.4 mm | - | - | - |
| 1777644155 | 6.11° C | 81% | 887.2 hPa | 120.4 mm | - | - | - |
| 1777643554 | 6.11° C | 78% | 886.7 hPa | 120.4 mm | - | - | - |
| 1777642353 | 6.11° C | 77% | 886.7 hPa | 120.4 mm | - | - | - |
| 1777641753 | 6.11° C | 74% | 886.6 hPa | 120.4 mm | - | - | - |
| 1777641153 | 6.11° C | 78% | 886.5 hPa | 120.4 mm | - | - | - |
| 1777638750 | 6.67° C | 75% | 886.2 hPa | 120.4 mm | - | - | - |
| 1777638150 | 6.67° C | 77% | 886.5 hPa | 120.4 mm | - | - | - |
| 1777637549 | 6.67° C | 77% | 886.5 hPa | 120.4 mm | - | - | - |
| 1777636949 | 6.67° C | 77% | 886.9 hPa | 120.4 mm | - | - | - |
| 1777636349 | 7.22° C | 72% | 886.8 hPa | 120.4 mm | - | - | - |
| 1777635748 | 7.22° C | 77% | 886.9 hPa | 120.4 mm | - | - | - |
| 1777635148 | 7.78° C | 75% | 886.9 hPa | 120.4 mm | - | - | - |
| 1777634548 | 7.78° C | 75% | 886.9 hPa | 120.4 mm | - | - | - |
| 1777633947 | 7.78° C | 75% | 886.7 hPa | 120.4 mm | - | - | - |
| 1777633346 | 7.78° C | 77% | 886.6 hPa | 120.4 mm | - | - | - |
| 1777632746 | 7.78° C | 78% | 886.8 hPa | 120.4 mm | - | - | - |
* Rain since midnight (hover to see other rain measurements)
** Current wind speed in m/s (hover to see current wind gust speed)